Main page
METAR-TAF:

METAR-TAF

Airports :

St Mary's Airport

Isles of Scilly, England

latitude: 49-55N, longitude: 006-18W, elevation: 31 m

Current weather observation

The report was made 4 hours and 5 minutes ago, at 17:50 UTC
Wind 14 kt from the West
Temperature 14°C
Humidity 94%
Pressure 1020 hPa
Visibility 10 km or more
Scattered clouds at a height of 2500 ft

METAR: EGHE 251750Z 27014KT 9999 SCT025 14/13 Q1020

Time: 22:55 (21:55 UTC)

Forecast

The report was made 7 hours and 59 minutes ago, at 13:56 UTC
Forecast valid from 25 at 15 UTC to 25 at 18 UTC
Wind 17 kt from the West
Visibility 10 km or more
Scattered clouds at a height of 2000 ft
Temporary
from 25 at 15 UTC to 25 at 18 UTC
Wind 20 kt from the West with gusts up to 30 kt
Visibility: 8000 m
Broken clouds at a height of 1000 ft
light rain showers

TAF: EGHE 251356Z 2515/2518 27017KT 9999 SCT020 TEMPO 2515/2518 27020G30KT 8000 -SHRA BKN010

Weather observations and forecasts of more than 4000 airports (METAR and TAF reports).

The available stations are represented by yellow and red dots on the map.

Hover mouse over dot to see the name of the station.

Then click to see weather observations and forecasts.

To change the map : click on the green buttons with a black cross to zoom in, on the green button with a dash to zoom out, or on the green arrows for adjacent maps.


METAR-TAF: